Time;durP1;ratioP1;P1;durP2;ratioP2;P2;SDS_P1;SDS_P2;PMS_P1;PMS_P2;Temp;Humidity;BMP_temperature;BMP_pressure;BME280_temperature;BME280_humidity;BME280_pressure;Samples;Min_cycle;Max_cycle;Signal;HPM_P1;HPM_P2
2023/02/28 00:00:51;;;;;;;;;;;;;;;;;;6179638;23;19893;-84
2023/02/28 00:03:20;;;;;;;;;;;;;;;;;;6179662;23;19912;-83
2023/02/28 00:05:48;;;;;;;;;;;;;;;;;;6181189;23;19919;-83
2023/02/28 00:08:16;;;;;;;;;;;;;;;;;;6154195;23;19913;-82
2023/02/28 00:10:41;;;;;;;;;;;;;;;;;;6128719;23;19936;-84
2023/02/28 00:13:10;;;;;;;;;;;;;;;;;;6153370;23;19901;-81
2023/02/28 00:15:45;;;;;;;;;;;;;;;;;;6154461;23;19892;-82
2023/02/28 00:18:11;;;;;;;;;;;;;;;;;;6179945;23;19965;-82
2023/02/28 00:20:40;;;;;;;;;;;;;;;;;;6132952;23;19965;-81
2023/02/28 00:23:05;;;;;;;;;;;;;;;;;;6181103;23;19912;-83
2023/02/28 00:25:33;;;;;;;;;;;;;;;;;;6181129;23;19965;-82
2023/02/28 00:27:59;;;;;;;;;;;;;;;;;;6157654;23;19912;-82
2023/02/28 00:30:25;;;;;;;;;;;;;;;;;;6180057;23;19897;-81
2023/02/28 00:32:50;;;;;;;;;;;;;;;;;;6128396;23;19979;-81
2023/02/28 00:35:16;;;;;;;;;;;;;;;;;;6153384;23;19987;-83
2023/02/28 00:37:41;;;;;;;;;;;;;;;;;;6126421;23;19948;-81
2023/02/28 00:40:07;;;;;;;;;;;;;;;;;;6144912;23;19916;-82
2023/02/28 00:42:33;;;;;;;;;;;;;;;;;;6145866;23;19914;-82
2023/02/28 00:44:58;;;;;;;;;;;;;;;;;;6152554;23;19903;-83
2023/02/28 00:47:24;;;;;;;;;;;;;;;;;;6153080;23;19909;-83
2023/02/28 00:49:49;;;;;;;;;;;;;;;;;;6153330;23;19909;-83
2023/02/28 00:52:14;;;;;;;;;;;;;;;;;;6128478;23;19908;-81
2023/02/28 00:54:40;;;;;;;;;;;;;;;;;;6152268;23;19912;-83
2023/02/28 00:57:06;;;;;;;;;;;;;;;;;;6151374;23;19908;-82
2023/02/28 00:59:32;;;;;;;;;;;;;;;;;;6176999;23;19931;-83
2023/02/28 01:01:57;;;;;;;;;;;;;;;;;;6178264;23;19909;-83
2023/02/28 01:04:23;;;;;;;;;;;;;;;;;;6155494;23;19916;-82
2023/02/28 01:06:48;;;;;;;;;;;;;;;;;;6155796;23;19948;-83
2023/02/28 01:09:13;;;;;;;;;;;;;;;;;;6154435;23;19912;-83
2023/02/28 01:11:41;;;;;;;;;;;;;;;;;;6153491;23;19932;-84
2023/02/28 01:14:06;;;;;;;;;;;;;;;;;;6180666;23;19916;-83
2023/02/28 01:16:32;;;;;;;;;;;;;;;;;;6156666;23;19917;-84
2023/02/28 01:18:57;;;;;;;;;;;;;;;;;;6181219;23;19928;-83
2023/02/28 01:21:23;;;;;;;;;;;;;;;;;;6154790;23;19916;-84
2023/02/28 01:23:48;;;;;;;;;;;;;;;;;;6151849;23;19908;-83
2023/02/28 01:26:14;;;;;;;;;;;;;;;;;;6176881;23;19908;-82
2023/02/28 01:28:39;;;;;;;;;;;;;;;;;;6176366;23;19909;-83
2023/02/28 01:31:05;;;;;;;;;;;;;;;;;;6130694;23;19893;-83
2023/02/28 01:33:31;;;;;;;;;;;;;;;;;;6155407;23;19893;-84
2023/02/28 01:35:59;;;;;;;;;;;;;;;;;;6131141;23;19893;-84
2023/02/28 01:38:29;;;;;;;;;;;;;;;;;;6179687;23;19936;-84
2023/02/28 01:40:54;;;;;;;;;;;;;;;;;;6153569;23;19909;-84
2023/02/28 01:43:20;;;;;;;;;;;;;;;;;;6149936;23;19956;-83
2023/02/28 01:45:48;;;;;;;;;;;;;;;;;;6146072;23;19932;-85
2023/02/28 01:48:15;;;;;;;;;;;;;;;;;;6120129;23;19916;-82
2023/02/28 01:50:43;;;;;;;;;;;;;;;;;;6142522;23;19952;-83
2023/02/28 01:53:09;;;;;;;;;;;;;;;;;;6168194;23;19916;-84
2023/02/28 01:55:34;;;;;;;;;;;;;;;;;;6142318;23;19988;-84
2023/02/28 01:58:00;;;;;;;;;;;;;;;;;;6122448;23;19933;-83
2023/02/28 02:00:29;;;;;;;;;;;;;;;;;;6172976;23;20262;-84
2023/02/28 02:02:58;;;;;;;;;;;;;;;;;;6172003;23;19908;-84
2023/02/28 02:05:24;;;;;;;;;;;;;;;;;;6171382;23;19936;-83
2023/02/28 02:07:49;;;;;;;;;;;;;;;;;;6151933;23;19915;-82
2023/02/28 02:10:15;;;;;;;;;;;;;;;;;;6127671;23;19915;-83
2023/02/28 02:12:42;;;;;;;;;;;;;;;;;;6151176;23;19908;-82
2023/02/28 02:15:08;;;;;;;;;;;;;;;;;;6150930;23;19962;-83
2023/02/28 02:17:34;;;;;;;;;;;;;;;;;;6173147;23;19909;-82
2023/02/28 02:20:01;;;;;;;;;;;;;;;;;;6169170;23;19909;-84
2023/02/28 02:22:35;;;;;;;;;;;;;;;;;;6169453;23;19909;-83
2023/02/28 02:25:06;;;;;;;;;;;;;;;;;;6119002;23;19919;-84
2023/02/28 02:27:33;;;;;;;;;;;;;;;;;;6118478;23;19909;-83
2023/02/28 02:30:01;;;;;;;;;;;;;;;;;;6164614;23;19940;-82
2023/02/28 02:32:27;;;;;;;;;;;;;;;;;;6140469;23;19908;-83
2023/02/28 02:34:53;;;;;;;;;;;;;;;;;;6166912;23;19908;-84
2023/02/28 02:37:18;;;;;;;;;;;;;;;;;;6167700;23;19909;-84
2023/02/28 02:39:48;;;;;;;;;;;;;;;;;;6165373;23;19984;-83
2023/02/28 02:42:13;;;;;;;;;;;;;;;;;;6139552;23;19908;-83
2023/02/28 02:44:39;;;;;;;;;;;;;;;;;;6114538;23;20343;-82
2023/02/28 02:47:04;;;;;;;;;;;;;;;;;;6137234;23;19908;-82
2023/02/28 02:49:30;;;;;;;;;;;;;;;;;;6137588;23;19912;-82
2023/02/28 02:51:55;;;;;;;;;;;;;;;;;;6145623;23;19912;-82
2023/02/28 02:54:21;;;;;;;;;;;;;;;;;;6172099;23;19909;-83
2023/02/28 02:56:48;;;;;;;;;;;;;;;;;;6146980;23;19911;-82
2023/02/28 02:59:13;;;;;;;;;;;;;;;;;;6172606;23;19983;-83
2023/02/28 03:01:42;;;;;;;;;;;;;;;;;;6171479;23;19915;-82
2023/02/28 03:04:07;;;;;;;;;;;;;;;;;;6174396;23;19913;-84
2023/02/28 03:06:33;;;;;;;;;;;;;;;;;;6150454;23;19909;-83
2023/02/28 03:08:59;;;;;;;;;;;;;;;;;;6152788;23;19900;-83
2023/02/28 03:11:24;;;;;;;;;;;;;;;;;;6152787;23;19932;-83
2023/02/28 03:13:50;;;;;;;;;;;;;;;;;;6152245;23;19913;-83
2023/02/28 03:16:16;;;;;;;;;;;;;;;;;;6127428;23;19909;-83
2023/02/28 03:18:45;;;;;;;;;;;;;;;;;;6152542;23;19916;-83
2023/02/28 03:21:11;;;;;;;;;;;;;;;;;;6153034;23;19908;-84
2023/02/28 03:23:37;;;;;;;;;;;;;;;;;;6153006;23;19940;-83
2023/02/28 03:26:03;;;;;;;;;;;;;;;;;;6152681;23;19939;-84
2023/02/28 03:28:28;;;;;;;;;;;;;;;;;;6153257;23;19909;-83
2023/02/28 03:30:54;;;;;;;;;;;;;;;;;;6126898;23;19919;-83
2023/02/28 03:33:19;;;;;;;;;;;;;;;;;;6175872;23;19912;-83
2023/02/28 03:35:45;;;;;;;;;;;;;;;;;;6149883;23;19909;-83
2023/02/28 03:38:13;;;;;;;;;;;;;;;;;;6148768;23;19903;-83
2023/02/28 03:40:39;;;;;;;;;;;;;;;;;;6174071;23;19913;-82
2023/02/28 03:43:04;;;;;;;;;;;;;;;;;;6176973;23;19940;-84
2023/02/28 03:45:30;;;;;;;;;;;;;;;;;;6154297;23;19916;-84
2023/02/28 03:47:58;;;;;;;;;;;;;;;;;;6153406;23;19945;-85
2023/02/28 03:50:24;;;;;;;;;;;;;;;;;;6176272;23;19913;-84
2023/02/28 03:52:49;;;;;;;;;;;;;;;;;;6176005;23;19909;-83
2023/02/28 03:55:15;;;;;;;;;;;;;;;;;;6125930;23;19932;-83
2023/02/28 03:57:40;;;;;;;;;;;;;;;;;;6149865;23;20352;-84
2023/02/28 04:00:06;;;;;;;;;;;;;;;;;;6156900;23;19917;-83
2023/02/28 04:02:39;;;;;;;;;;;;;;;;;;6156702;23;19908;-83
2023/02/28 04:05:04;;;;;;;;;;;;;;;;;;6180175;23;19912;-84
2023/02/28 04:07:30;;;;;;;;;;;;;;;;;;6153189;23;20322;-84
2023/02/28 04:09:56;;;;;;;;;;;;;;;;;;6128899;23;20262;-83
2023/02/28 04:12:22;;;;;;;;;;;;;;;;;;6180156;23;19913;-83
2023/02/28 04:14:48;;;;;;;;;;;;;;;;;;6152944;23;19916;-83
2023/02/28 04:17:13;;;;;;;;;;;;;;;;;;6179337;23;19908;-84
2023/02/28 04:19:39;;;;;;;;;;;;;;;;;;6154787;23;19912;-84
2023/02/28 04:22:05;;;;;;;;;;;;;;;;;;6180924;23;20246;-83
2023/02/28 04:24:30;;;;;;;;;;;;;;;;;;6181662;23;19952;-83
2023/02/28 04:26:56;;;;;;;;;;;;;;;;;;6182394;23;19909;-84
2023/02/28 04:29:22;;;;;;;;;;;;;;;;;;6155862;23;19913;-83
2023/02/28 04:31:47;;;;;;;;;;;;;;;;;;6155199;23;20283;-82
2023/02/28 04:34:13;;;;;;;;;;;;;;;;;;6179501;23;19908;-83
2023/02/28 04:36:39;;;;;;;;;;;;;;;;;;6153636;23;19913;-82
2023/02/28 04:39:07;;;;;;;;;;;;;;;;;;6178196;23;19909;-84
2023/02/28 04:41:32;;;;;;;;;;;;;;;;;;6129063;23;19911;-83
2023/02/28 04:43:58;;;;;;;;;;;;;;;;;;6153640;23;19909;-82
2023/02/28 04:46:23;;;;;;;;;;;;;;;;;;6179234;23;19909;-81
2023/02/28 04:48:49;;;;;;;;;;;;;;;;;;6180354;23;19916;-83
2023/02/28 04:51:15;;;;;;;;;;;;;;;;;;6155238;23;19991;-83
2023/02/28 04:53:40;;;;;;;;;;;;;;;;;;6180358;23;19944;-84
2023/02/28 04:56:09;;;;;;;;;;;;;;;;;;6181168;23;19928;-84
2023/02/28 04:58:37;;;;;;;;;;;;;;;;;;6155023;23;19919;-84
2023/02/28 05:01:02;;;;;;;;;;;;;;;;;;6178628;23;20287;-84
2023/02/28 05:03:30;;;;;;;;;;;;;;;;;;6179097;23;19908;-84
2023/02/28 05:05:59;;;;;;;;;;;;;;;;;;6152826;23;19913;-84
2023/02/28 05:08:25;;;;;;;;;;;;;;;;;;6126422;23;19909;-83
2023/02/28 05:10:51;;;;;;;;;;;;;;;;;;6178435;23;19940;-84
2023/02/28 05:13:16;;;;;;;;;;;;;;;;;;6128879;23;19916;-84
2023/02/28 05:15:42;;;;;;;;;;;;;;;;;;6153102;23;20210;-82
2023/02/28 05:18:07;;;;;;;;;;;;;;;;;;6178990;23;19916;-80
2023/02/28 05:20:35;;;;;;;;;;;;;;;;;;6178821;23;19909;-85
2023/02/28 05:23:01;;;;;;;;;;;;;;;;;;6154939;23;19901;-84
2023/02/28 05:25:31;;;;;;;;;;;;;;;;;;6179377;23;19897;-83
2023/02/28 05:27:57;;;;;;;;;;;;;;;;;;6154058;23;19900;-83
2023/02/28 05:30:25;;;;;;;;;;;;;;;;;;6153351;23;19896;-83
2023/02/28 05:32:56;;;;;;;;;;;;;;;;;;6179058;23;19909;-85
2023/02/28 05:35:21;;;;;;;;;;;;;;;;;;6155011;23;19908;-84
2023/02/28 05:40:30;;;;;;;;;;;;;;;;;;6188717;23;19929;-84
2023/02/28 05:42:56;;;;;;;;;;;;;;;;;;6159966;23;19897;-84
2023/02/28 05:45:22;;;;;;;;;;;;;;;;;;6158795;23;20348;-85
2023/02/28 05:47:49;;;;;;;;;;;;;;;;;;6183479;23;20122;-85
2023/02/28 05:50:15;;;;;;;;;;;;;;;;;;6181661;23;19921;-83
2023/02/28 05:52:41;;;;;;;;;;;;;;;;;;6181573;23;19913;-82
2023/02/28 05:55:07;;;;;;;;;;;;;;;;;;6176278;23;19908;-83
2023/02/28 05:57:32;;;;;;;;;;;;;;;;;;6181166;23;19904;-83
2023/02/28 06:00:01;;;;;;;;;;;;;;;;;;6181992;23;19893;-83
2023/02/28 06:02:38;;;;;;;;;;;;;;;;;;6182511;23;19899;-84
2023/02/28 06:05:04;;;;;;;;;;;;;;;;;;6157829;23;19912;-83
2023/02/28 06:07:33;;;;;;;;;;;;;;;;;;6182832;23;19908;-83
2023/02/28 06:10:01;;;;;;;;;;;;;;;;;;6181919;23;19936;-84
2023/02/28 06:12:27;;;;;;;;;;;;;;;;;;6182791;23;19961;-84
2023/02/28 06:14:53;;;;;;;;;;;;;;;;;;6158251;23;19909;-82
2023/02/28 06:17:18;;;;;;;;;;;;;;;;;;6182714;23;19957;-84
2023/02/28 06:19:47;;;;;;;;;;;;;;;;;;6182313;23;19986;-82
2023/02/28 06:22:13;;;;;;;;;;;;;;;;;;6157514;23;19912;-82
2023/02/28 06:24:39;;;;;;;;;;;;;;;;;;6158455;23;19920;-81
2023/02/28 06:27:08;;;;;;;;;;;;;;;;;;6159417;23;19901;-84
2023/02/28 06:29:33;;;;;;;;;;;;;;;;;;6184251;23;19915;-83
2023/02/28 06:31:59;;;;;;;;;;;;;;;;;;6183128;23;19916;-82
2023/02/28 06:34:26;;;;;;;;;;;;;;;;;;6159268;23;19932;-82
2023/02/28 06:36:52;;;;;;;;;;;;;;;;;;6156965;23;19955;-83
2023/02/28 06:39:21;;;;;;;;;;;;;;;;;;6177215;23;19892;-85
2023/02/28 06:41:47;;;;;;;;;;;;;;;;;;6133692;23;19920;-83
2023/02/28 06:44:13;;;;;;;;;;;;;;;;;;6157901;23;20124;-82
2023/02/28 06:46:40;;;;;;;;;;;;;;;;;;6157332;23;19916;-84
2023/02/28 06:49:08;;;;;;;;;;;;;;;;;;6183189;23;19903;-84
2023/02/28 06:51:34;;;;;;;;;;;;;;;;;;6133489;23;19916;-83
2023/02/28 06:54:02;;;;;;;;;;;;;;;;;;6155238;23;19909;-83
2023/02/28 06:56:33;;;;;;;;;;;;;;;;;;6181229;23;19932;-82
2023/02/28 06:58:59;;;;;;;;;;;;;;;;;;6180776;23;19908;-83
2023/02/28 07:01:28;;;;;;;;;;;;;;;;;;6183689;23;19928;-83
2023/02/28 07:03:54;;;;;;;;;;;;;;;;;;6156542;23;19909;-84
2023/02/28 07:06:22;;;;;;;;;;;;;;;;;;6182177;23;19933;-83
2023/02/28 07:08:52;;;;;;;;;;;;;;;;;;6155946;23;19916;-84
2023/02/28 07:11:18;;;;;;;;;;;;;;;;;;6157562;23;19915;-84
2023/02/28 07:13:47;;;;;;;;;;;;;;;;;;6158154;23;19896;-83
2023/02/28 07:16:13;;;;;;;;;;;;;;;;;;6179640;23;19905;-82
2023/02/28 07:18:42;;;;;;;;;;;;;;;;;;6154296;23;19909;-81
2023/02/28 07:21:08;;;;;;;;;;;;;;;;;;6179978;23;19948;-82
2023/02/28 07:23:34;;;;;;;;;;;;;;;;;;6178760;23;19913;-81
2023/02/28 07:26:00;;;;;;;;;;;;;;;;;;6179831;23;19948;-82
2023/02/28 07:28:26;;;;;;;;;;;;;;;;;;6182791;23;20254;-83
2023/02/28 07:30:52;;;;;;;;;;;;;;;;;;6181776;23;19971;-83
2023/02/28 07:33:23;;;;;;;;;;;;;;;;;;6159766;23;19897;-85
2023/02/28 07:35:49;;;;;;;;;;;;;;;;;;6186446;23;19896;-83
2023/02/28 07:38:15;;;;;;;;;;;;;;;;;;6187324;23;19940;-83
2023/02/28 07:40:41;;;;;;;;;;;;;;;;;;6161849;23;19909;-83
2023/02/28 07:43:07;;;;;;;;;;;;;;;;;;6184904;23;19952;-83
2023/02/28 07:45:34;;;;;;;;;;;;;;;;;;6185205;23;19916;-82
2023/02/28 07:47:59;;;;;;;;;;;;;;;;;;6177152;23;19908;-82
2023/02/28 07:50:30;;;;;;;;;;;;;;;;;;6177458;23;19912;-82
2023/02/28 07:52:56;;;;;;;;;;;;;;;;;;6183896;23;19904;-84
2023/02/28 07:55:27;;;;;;;;;;;;;;;;;;6161303;23;19912;-84
2023/02/28 07:57:56;;;;;;;;;;;;;;;;;;6182596;23;19908;-85
2023/02/28 08:00:22;;;;;;;;;;;;;;;;;;6185584;23;19932;-83
2023/02/28 08:02:48;;;;;;;;;;;;;;;;;;6159906;23;19908;-83
2023/02/28 08:05:14;;;;;;;;;;;;;;;;;;6160074;23;19948;-82
2023/02/28 08:07:40;;;;;;;;;;;;;;;;;;6183335;23;19909;-82
2023/02/28 08:10:05;;;;;;;;;;;;;;;;;;6181910;23;19916;-82
2023/02/28 08:12:31;;;;;;;;;;;;;;;;;;6148572;23;19932;-84
2023/02/28 08:14:58;;;;;;;;;;;;;;;;;;6171959;23;19915;-83
2023/02/28 08:17:24;;;;;;;;;;;;;;;;;;6154225;23;19956;-82
2023/02/28 08:19:51;;;;;;;;;;;;;;;;;;6128430;23;19952;-83
2023/02/28 08:22:17;;;;;;;;;;;;;;;;;;6127673;23;20286;-83
2023/02/28 08:24:47;;;;;;;;;;;;;;;;;;6153191;23;19960;-82
2023/02/28 08:27:13;;;;;;;;;;;;;;;;;;6181576;23;19936;-82
2023/02/28 08:29:39;;;;;;;;;;;;;;;;;;6180041;23;19928;-83
2023/02/28 08:32:04;;;;;;;;;;;;;;;;;;6132330;23;19916;-82
2023/02/28 08:34:31;;;;;;;;;;;;;;;;;;6182402;23;19912;-83
2023/02/28 08:36:56;;;;;;;;;;;;;;;;;;6183059;23;19915;-82
2023/02/28 08:39:22;;;;;;;;;;;;;;;;;;6184389;23;19908;-83
2023/02/28 08:41:47;;;;;;;;;;;;;;;;;;6158432;23;19909;-84
2023/02/28 08:44:13;;;;;;;;;;;;;;;;;;6160335;23;19927;-82
2023/02/28 08:46:45;;;;;;;;;;;;;;;;;;6181823;23;19916;-84
2023/02/28 08:49:11;;;;;;;;;;;;;;;;;;6182949;23;20063;-83
2023/02/28 08:51:37;;;;;;;;;;;;;;;;;;6158331;23;19901;-83
2023/02/28 08:54:05;;;;;;;;;;;;;;;;;;6158713;23;19909;-83
2023/02/28 08:56:31;;;;;;;;;;;;;;;;;;6182479;23;19915;-83
2023/02/28 08:58:59;;;;;;;;;;;;;;;;;;6184232;23;19896;-83
2023/02/28 09:01:26;;;;;;;;;;;;;;;;;;6182136;23;19893;-83
2023/02/28 09:03:55;;;;;;;;;;;;;;;;;;6158416;23;19959;-83
2023/02/28 09:06:21;;;;;;;;;;;;;;;;;;6182607;23;19908;-82
2023/02/28 09:08:50;;;;;;;;;;;;;;;;;;6182621;23;19893;-83
2023/02/28 09:11:16;;;;;;;;;;;;;;;;;;6157949;23;19957;-83
2023/02/28 09:13:42;;;;;;;;;;;;;;;;;;6183621;23;19909;-84
2023/02/28 09:16:11;;;;;;;;;;;;;;;;;;6182896;23;19905;-84
2023/02/28 09:18:37;;;;;;;;;;;;;;;;;;6158374;23;19915;-83
2023/02/28 09:21:03;;;;;;;;;;;;;;;;;;6182409;23;19935;-83
2023/02/28 09:23:29;;;;;;;;;;;;;;;;;;6157684;23;19905;-83
2023/02/28 09:25:55;;;;;;;;;;;;;;;;;;6156876;23;19897;-83
2023/02/28 09:28:23;;;;;;;;;;;;;;;;;;6182176;23;19908;-83
2023/02/28 09:30:49;;;;;;;;;;;;;;;;;;6181550;23;19928;-83
2023/02/28 09:33:15;;;;;;;;;;;;;;;;;;6156474;23;19913;-83
2023/02/28 09:35:41;;;;;;;;;;;;;;;;;;6133528;23;19913;-84
2023/02/28 09:38:07;;;;;;;;;;;;;;;;;;6134963;23;19941;-84
2023/02/28 09:40:33;;;;;;;;;;;;;;;;;;6133284;23;19909;-83
2023/02/28 09:43:01;;;;;;;;;;;;;;;;;;6155645;23;19909;-83
2023/02/28 09:45:32;;;;;;;;;;;;;;;;;;6128513;23;19922;-83
2023/02/28 09:48:04;;;;;;;;;;;;;;;;;;6178686;23;19909;-83
2023/02/28 09:50:29;;;;;;;;;;;;;;;;;;6174582;23;19913;-84
2023/02/28 09:52:56;;;;;;;;;;;;;;;;;;6150837;23;19908;-84
2023/02/28 09:55:24;;;;;;;;;;;;;;;;;;6173609;23;19952;-83
2023/02/28 09:57:50;;;;;;;;;;;;;;;;;;6173028;23;19908;-82
2023/02/28 10:00:16;;;;;;;;;;;;;;;;;;6175447;23;19915;-85
2023/02/28 10:02:42;;;;;;;;;;;;;;;;;;6150991;23;20011;-83
2023/02/28 10:05:08;;;;;;;;;;;;;;;;;;6127374;23;19961;-84
2023/02/28 10:07:35;;;;;;;;;;;;;;;;;;6150132;23;19908;-85
2023/02/28 10:10:00;;;;;;;;;;;;;;;;;;6152791;23;19973;-83
2023/02/28 10:12:32;;;;;;;;;;;;;;;;;;6151674;23;19915;-84
2023/02/28 10:14:59;;;;;;;;;;;;;;;;;;6173468;23;19908;-84
2023/02/28 10:17:28;;;;;;;;;;;;;;;;;;6176767;23;19928;-84
2023/02/28 10:19:57;;;;;;;;;;;;;;;;;;6154630;23;19932;-84
2023/02/28 10:22:27;;;;;;;;;;;;;;;;;;6156929;23;19912;-84
2023/02/28 10:24:59;;;;;;;;;;;;;;;;;;6159253;23;19940;-86
2023/02/28 10:27:26;;;;;;;;;;;;;;;;;;6159204;23;19960;-84
2023/02/28 10:29:55;;;;;;;;;;;;;;;;;;6134378;23;20064;-86
2023/02/28 10:32:28;;;;;;;;;;;;;;;;;;6159666;23;19920;-85
2023/02/28 10:34:58;;;;;;;;;;;;;;;;;;6159503;23;19913;-85
2023/02/28 10:37:28;;;;;;;;;;;;;;;;;;6123596;23;19905;-85
2023/02/28 10:39:54;;;;;;;;;;;;;;;;;;6182901;23;19896;-84
2023/02/28 10:42:25;;;;;;;;;;;;;;;;;;6184371;23;19904;-86
2023/02/28 10:44:51;;;;;;;;;;;;;;;;;;6158067;23;19932;-85
2023/02/28 10:47:17;;;;;;;;;;;;;;;;;;6159862;23;19897;-84
2023/02/28 10:49:45;;;;;;;;;;;;;;;;;;6159483;23;19944;-86
2023/02/28 10:52:10;;;;;;;;;;;;;;;;;;6166832;23;19940;-89
2023/02/28 10:54:37;;;;;;;;;;;;;;;;;;6169121;23;19909;-88
2023/02/28 10:57:02;;;;;;;;;;;;;;;;;;6163201;23;19936;-88
2023/02/28 10:59:27;;;;;;;;;;;;;;;;;;6160117;23;20266;-92
2023/02/28 11:01:53;;;;;;;;;;;;;;;;;;6155747;23;19919;-91
2023/02/28 11:04:19;;;;;;;;;;;;;;;;;;6155461;23;19912;-93
2023/02/28 11:06:44;;;;;;;;;;;;;;;;;;6154993;23;20311;-90
2023/02/28 11:09:10;;;;;;;;;;;;;;;;;;6180444;23;19909;-92
2023/02/28 11:11:35;;;;;;;;;;;;;;;;;;6180458;23;19963;-91
2023/02/28 11:14:01;;;;;;;;;;;;;;;;;;6157156;23;20393;-90
2023/02/28 11:16:27;;;;;;;;;;;;;;;;;;6157268;23;19908;-93
2023/02/28 11:18:52;;;;;;;;;;;;;;;;;;6161549;23;19939;-90
2023/02/28 11:21:18;;;;;;;;;;;;;;;;;;6169916;23;19915;-90
2023/02/28 11:23:43;;;;;;;;;;;;;;;;;;6169247;23;19920;-86
2023/02/28 11:26:11;;;;;;;;;;;;;;;;;;6174098;23;19920;-86
2023/02/28 11:28:36;;;;;;;;;;;;;;;;;;6174950;23;19905;-85
2023/02/28 11:31:02;;;;;;;;;;;;;;;;;;6176993;23;19916;-88
2023/02/28 11:33:28;;;;;;;;;;;;;;;;;;6202423;23;19935;-89
2023/02/28 11:35:53;;;;;;;;;;;;;;;;;;6144589;23;19919;-89
2023/02/28 11:38:19;;;;;;;;;;;;;;;;;;6134697;23;20363;-91
2023/02/28 11:40:44;;;;;;;;;;;;;;;;;;6132714;23;20335;-91
2023/02/28 11:43:10;;;;;;;;;;;;;;;;;;6130637;23;19916;-91
2023/02/28 11:45:35;;;;;;;;;;;;;;;;;;6130400;23;20322;-91
2023/02/28 11:48:01;;;;;;;;;;;;;;;;;;6154865;23;20220;-91
2023/02/28 11:50:26;;;;;;;;;;;;;;;;;;6154495;23;20965;-77
2023/02/28 11:52:52;;;;;;;;;;;;;;;;;;6152589;23;19916;-77
2023/02/28 11:55:17;;;;;;;;;;;;;;;;;;6152312;23;19904;-77
2023/02/28 11:57:42;;;;;;;;;;;;;;;;;;6153769;23;19946;-78
2023/02/28 12:00:08;;;;;;;;;;;;;;;;;;6153745;23;19940;-77
2023/02/28 12:02:37;;;;;;;;;;;;;;;;;;6152486;23;19916;-78
2023/02/28 12:05:04;;;;;;;;;;;;;;;;;;6152250;23;19916;-78
2023/02/28 12:07:29;;;;;;;;;;;;;;;;;;6152619;23;19975;-76
2023/02/28 12:09:55;;;;;;;;;;;;;;;;;;6127979;23;20263;-77
2023/02/28 12:12:20;;;;;;;;;;;;;;;;;;6153926;23;20023;-77
2023/02/28 12:14:45;;;;;;;;;;;;;;;;;;6153779;23;19937;-76
2023/02/28 12:17:11;;;;;;;;;;;;;;;;;;6154133;23;20293;-75
2023/02/28 12:19:36;;;;;;;;;;;;;;;;;;6152937;23;19940;-76
2023/02/28 12:22:02;;;;;;;;;;;;;;;;;;6155724;23;19943;-77
2023/02/28 12:24:27;;;;;;;;;;;;;;;;;;6155787;23;19916;-76
2023/02/28 12:26:52;;;;;;;;;;;;;;;;;;6154110;23;19916;-77
2023/02/28 12:29:19;;;;;;;;;;;;;;;;;;6154084;23;19909;-77
2023/02/28 12:31:44;;;;;;;;;;;;;;;;;;6155442;23;19916;-76
2023/02/28 12:34:10;;;;;;;;;;;;;;;;;;6155667;23;20011;-76
2023/02/28 12:36:35;;;;;;;;;;;;;;;;;;6129341;23;20417;-76
2023/02/28 12:39:01;;;;;;;;;;;;;;;;;;6105180;23;20208;-76
2023/02/28 12:41:27;;;;;;;;;;;;;;;;;;6129148;23;19908;-76
2023/02/28 12:43:53;;;;;;;;;;;;;;;;;;6154123;23;19904;-76
2023/02/28 12:46:18;;;;;;;;;;;;;;;;;;6128923;23;20338;-77
2023/02/28 12:48:44;;;;;;;;;;;;;;;;;;6155598;23;19932;-77
2023/02/28 12:51:09;;;;;;;;;;;;;;;;;;6153877;23;19919;-76
2023/02/28 12:53:35;;;;;;;;;;;;;;;;;;6154411;23;19909;-76
2023/02/28 12:56:00;;;;;;;;;;;;;;;;;;6153976;23;19909;-78
2023/02/28 12:58:26;;;;;;;;;;;;;;;;;;6129413;23;20351;-77
2023/02/28 13:00:51;;;;;;;;;;;;;;;;;;6153933;23;20335;-77
2023/02/28 13:03:17;;;;;;;;;;;;;;;;;;6153905;23;19909;-76
2023/02/28 13:05:42;;;;;;;;;;;;;;;;;;6155126;23;20416;-74
2023/02/28 13:08:08;;;;;;;;;;;;;;;;;;6129480;23;20228;-75
2023/02/28 13:10:33;;;;;;;;;;;;;;;;;;6153997;23;20352;-75
2023/02/28 13:12:58;;;;;;;;;;;;;;;;;;6155440;23;20410;-76
2023/02/28 13:15:24;;;;;;;;;;;;;;;;;;6153454;23;19916;-75
2023/02/28 13:17:50;;;;;;;;;;;;;;;;;;6153792;23;19909;-75
2023/02/28 13:20:15;;;;;;;;;;;;;;;;;;6155979;23;19955;-74
2023/02/28 13:22:40;;;;;;;;;;;;;;;;;;6157630;23;19970;-75
2023/02/28 13:25:06;;;;;;;;;;;;;;;;;;6154436;23;20246;-74
2023/02/28 13:27:31;;;;;;;;;;;;;;;;;;6155909;23;19909;-76
2023/02/28 13:29:57;;;;;;;;;;;;;;;;;;6154142;23;19912;-75
2023/02/28 13:32:22;;;;;;;;;;;;;;;;;;6154706;23;19909;-74
2023/02/28 13:34:48;;;;;;;;;;;;;;;;;;6153733;23;19975;-74
2023/02/28 13:37:13;;;;;;;;;;;;;;;;;;6155414;23;20239;-74
2023/02/28 13:39:39;;;;;;;;;;;;;;;;;;6158287;23;20027;-75
2023/02/28 13:42:04;;;;;;;;;;;;;;;;;;6158798;23;19939;-77
2023/02/28 13:44:30;;;;;;;;;;;;;;;;;;6164323;23;20019;-73
2023/02/28 13:47:00;;;;;;;;;;;;;;;;;;6162549;23;20238;-74
2023/02/28 13:49:25;;;;;;;;;;;;;;;;;;6159712;23;19909;-74
2023/02/28 13:51:51;;;;;;;;;;;;;;;;;;6158134;23;19994;-75
2023/02/28 13:54:16;;;;;;;;;;;;;;;;;;6158325;23;19919;-72
2023/02/28 13:56:41;;;;;;;;;;;;;;;;;;6157041;23;19915;-74
2023/02/28 13:59:07;;;;;;;;;;;;;;;;;;6154304;23;19915;-75
2023/02/28 14:01:35;;;;;;;;;;;;;;;;;;6155214;23;19931;-75
2023/02/28 14:04:01;;;;;;;;;;;;;;;;;;6153674;23;20246;-75
2023/02/28 14:06:26;;;;;;;;;;;;;;;;;;6155035;23;19909;-75
2023/02/28 14:08:52;;;;;;;;;;;;;;;;;;6153378;23;20302;-75
2023/02/28 14:11:17;;;;;;;;;;;;;;;;;;6128986;23;20230;-75
2023/02/28 14:13:47;;;;;;;;;;;;;;;;;;6104401;23;19955;-75
2023/02/28 14:16:12;;;;;;;;;;;;;;;;;;6153400;23;19909;-75
2023/02/28 14:18:37;;;;;;;;;;;;;;;;;;6153894;23;19911;-76
2023/02/28 14:21:03;;;;;;;;;;;;;;;;;;6153382;23;19915;-75
2023/02/28 14:23:28;;;;;;;;;;;;;;;;;;6153355;23;20199;-75
2023/02/28 14:25:54;;;;;;;;;;;;;;;;;;6153427;23;19961;-74
2023/02/28 14:28:19;;;;;;;;;;;;;;;;;;6153275;23;20246;-74
2023/02/28 14:30:45;;;;;;;;;;;;;;;;;;6153161;23;19915;-74
2023/02/28 14:33:10;;;;;;;;;;;;;;;;;;6128240;23;20294;-75
2023/02/28 14:35:36;;;;;;;;;;;;;;;;;;6153103;23;19912;-76
2023/02/28 14:38:02;;;;;;;;;;;;;;;;;;6128047;23;19909;-75
2023/02/28 14:40:27;;;;;;;;;;;;;;;;;;6153250;23;20245;-76
2023/02/28 14:42:53;;;;;;;;;;;;;;;;;;6103587;23;19908;-76
2023/02/28 14:45:19;;;;;;;;;;;;;;;;;;6152458;23;19947;-75
2023/02/28 14:47:45;;;;;;;;;;;;;;;;;;6128676;23;20064;-74
2023/02/28 14:50:10;;;;;;;;;;;;;;;;;;6152917;23;19913;-77
2023/02/28 14:52:35;;;;;;;;;;;;;;;;;;6128228;23;19978;-76
2023/02/28 14:55:01;;;;;;;;;;;;;;;;;;6128098;23;19915;-76
2023/02/28 14:57:26;;;;;;;;;;;;;;;;;;6128365;23;19955;-77
2023/02/28 14:59:52;;;;;;;;;;;;;;;;;;6152619;23;19909;-76
2023/02/28 15:02:17;;;;;;;;;;;;;;;;;;6128161;23;19944;-76
2023/02/28 15:04:43;;;;;;;;;;;;;;;;;;6127873;23;19944;-76
2023/02/28 15:07:08;;;;;;;;;;;;;;;;;;6154159;23;19908;-75
2023/02/28 15:09:34;;;;;;;;;;;;;;;;;;6154562;23;19909;-76
2023/02/28 15:11:59;;;;;;;;;;;;;;;;;;6128272;23;19956;-76
2023/02/28 15:14:25;;;;;;;;;;;;;;;;;;6152699;23;20330;-76
2023/02/28 15:16:50;;;;;;;;;;;;;;;;;;6127842;23;20250;-76
2023/02/28 15:19:16;;;;;;;;;;;;;;;;;;6128045;23;19909;-76
2023/02/28 15:21:41;;;;;;;;;;;;;;;;;;6152069;23;20323;-76
2023/02/28 15:24:07;;;;;;;;;;;;;;;;;;6152477;23;19936;-75
2023/02/28 15:26:32;;;;;;;;;;;;;;;;;;6127836;23;19909;-76
2023/02/28 15:28:57;;;;;;;;;;;;;;;;;;6153978;23;20343;-75
2023/02/28 15:31:23;;;;;;;;;;;;;;;;;;6128041;23;19904;-76
2023/02/28 15:33:48;;;;;;;;;;;;;;;;;;6154378;23;19909;-76
2023/02/28 15:36:13;;;;;;;;;;;;;;;;;;6152834;23;19916;-77
2023/02/28 15:38:39;;;;;;;;;;;;;;;;;;6154366;23;19915;-76
2023/02/28 15:41:07;;;;;;;;;;;;;;;;;;6154460;23;20078;-77
2023/02/28 15:43:33;;;;;;;;;;;;;;;;;;6152745;23;19909;-76
2023/02/28 15:45:58;;;;;;;;;;;;;;;;;;6152698;23;19991;-77
2023/02/28 15:48:24;;;;;;;;;;;;;;;;;;6154563;23;20294;-76
2023/02/28 15:50:52;;;;;;;;;;;;;;;;;;6103856;23;20290;-78
2023/02/28 15:53:18;;;;;;;;;;;;;;;;;;6152642;23;19909;-76
2023/02/28 15:55:44;;;;;;;;;;;;;;;;;;6155321;23;19984;-77
2023/02/28 15:58:09;;;;;;;;;;;;;;;;;;6154591;23;19908;-76
2023/02/28 16:00:35;;;;;;;;;;;;;;;;;;6155838;23;19909;-76
2023/02/28 16:03:00;;;;;;;;;;;;;;;;;;6105582;23;19913;-78
2023/02/28 16:05:32;;;;;;;;;;;;;;;;;;6129766;23;19983;-76
2023/02/28 16:07:58;;;;;;;;;;;;;;;;;;6154955;23;19908;-79
2023/02/28 16:10:25;;;;;;;;;;;;;;;;;;6105610;23;19931;-78
2023/02/28 16:12:51;;;;;;;;;;;;;;;;;;6129828;23;20007;-77
2023/02/28 16:15:16;;;;;;;;;;;;;;;;;;6129973;23;19909;-79
2023/02/28 16:17:42;;;;;;;;;;;;;;;;;;6156192;23;19915;-78
2023/02/28 16:20:07;;;;;;;;;;;;;;;;;;6156049;23;19909;-77
2023/02/28 16:22:32;;;;;;;;;;;;;;;;;;6156021;23;19932;-77
2023/02/28 16:24:58;;;;;;;;;;;;;;;;;;6129776;23;19980;-78
2023/02/28 16:27:24;;;;;;;;;;;;;;;;;;6154454;23;19913;-77
2023/02/28 16:29:50;;;;;;;;;;;;;;;;;;6154848;23;19918;-78
2023/02/28 16:32:16;;;;;;;;;;;;;;;;;;6154546;23;19928;-77
2023/02/28 16:34:41;;;;;;;;;;;;;;;;;;6129348;23;20406;-78
2023/02/28 16:37:07;;;;;;;;;;;;;;;;;;6155844;23;20258;-78
2023/02/28 16:39:32;;;;;;;;;;;;;;;;;;6155687;23;20242;-77
2023/02/28 16:41:58;;;;;;;;;;;;;;;;;;6155392;23;20242;-76